Time;durP1;ratioP1;P1;durP2;ratioP2;P2;SDS_P1;SDS_P2;PMS_P1;PMS_P2;Temp;Humidity;BMP_temperature;BMP_pressure;BME280_temperature;BME280_humidity;BME280_pressure;Samples;Min_cycle;Max_cycle;Signal;HPM_P1;HPM_P2
2021/12/05 00:26:04;;;;;;;7.63;5.55;;;5.20;58.20;;;3.46;63.29;99509.34;8277503;28;20594;-85
2021/12/05 00:44:46;;;;;;;7.05;5.25;;;5.20;58.30;;;3.38;63.45;99515.75;8269076;28;20137;-85
2021/12/05 00:49:01;;;;;;;8.10;5.40;;;5.20;58.20;;;3.51;63.26;99548.69;8277059;28;20129;-85
2021/12/05 01:12:39;;;;;;;9.27;5.93;;;5.20;58.20;;;3.47;63.39;99541.97;8282663;28;20041;-84
2021/12/05 01:17:05;;;;;;;10.95;5.80;;;5.20;58.20;;;3.41;63.84;99529.34;8272512;28;20145;-83
2021/12/05 01:21:28;;;;;;;9.73;6.00;;;5.20;58.20;;;3.36;63.72;99515.81;8264090;28;20038;-84
2021/12/05 01:26:03;;;;;;;12.05;7.25;;;5.20;58.20;;;3.45;63.43;99543.78;8273695;28;20045;-83
2021/12/05 01:30:34;;;;;;;12.23;6.40;;;5.20;58.30;;;3.38;63.41;99536.41;8272588;28;20109;-84
2021/12/05 01:35:08;;;;;;;9.18;5.68;;;5.00;58.20;;;3.44;63.94;99556.75;8283953;28;20124;-83
2021/12/05 01:39:42;;;;;;;9.75;6.07;;;5.20;58.40;;;3.48;63.70;99568.59;8284902;28;20563;-82
2021/12/05 01:53:50;;;;;;;10.32;6.90;;;5.20;58.40;;;3.50;64.16;99554.72;8291867;28;20042;-82
2021/12/05 02:03:11;;;;;;;10.35;7.00;;;5.20;58.30;;;3.48;63.64;99543.66;8284202;28;20117;-81
2021/12/05 02:08:00;;;;;;;13.32;6.80;;;5.20;58.30;;;3.47;63.79;99562.63;8286343;28;20121;-81
2021/12/05 02:15:13;;;;;;;13.85;8.57;;;5.20;58.30;;;3.45;63.54;99564.41;8289567;28;20076;-80
2021/12/05 02:31:38;;;;;;;10.30;6.43;;;5.20;58.40;;;3.51;63.62;99571.91;8282760;28;20042;-80
2021/12/05 02:40:51;;;;;;;11.18;7.20;;;5.30;58.30;;;3.54;63.70;99573.50;8292433;28;20570;-82
2021/12/05 02:45:13;;;;;;;12.77;7.45;;;5.30;58.30;;;3.49;63.65;99560.81;8281438;28;20129;-81
2021/12/05 02:49:42;;;;;;;12.32;7.50;;;5.30;58.30;;;3.51;63.64;99579.66;8271283;28;20042;-81
2021/12/05 02:54:10;;;;;;;10.93;6.97;;;5.30;58.30;;;3.53;63.77;99595.06;8284291;28;20125;-81
2021/12/05 02:58:47;;;;;;;11.35;7.68;;;5.30;58.30;;;3.54;63.84;99594.16;8285498;28;20026;-81
2021/12/05 03:03:19;;;;;;;12.63;8.38;;;5.30;58.30;;;3.54;63.93;99584.66;8299197;28;20563;-80
2021/12/05 03:07:46;;;;;;;11.50;7.78;;;5.30;58.40;;;3.52;64.10;99586.47;8281685;28;20037;-80
2021/12/05 03:12:16;;;;;;;13.95;8.73;;;5.30;58.30;;;3.52;63.68;99586.47;8271333;28;20046;-80
2021/12/05 03:16:40;;;;;;;13.55;7.82;;;5.30;58.40;;;3.54;63.71;99604.50;8291407;28;20554;-79
2021/12/05 03:21:07;;;;;;;11.80;7.68;;;5.30;58.40;;;3.54;63.64;99589.84;8265342;28;20128;-80
2021/12/05 03:25:31;;;;;;;12.98;8.52;;;5.30;58.40;;;3.58;63.58;99600.84;8279088;28;20055;-80
2021/12/05 03:29:57;;;;;;;12.73;8.38;;;5.30;58.40;;;3.61;63.79;99620.53;8271237;28;20052;-80
2021/12/05 03:34:20;;;;;;;13.20;8.38;;;5.30;58.30;;;3.51;63.89;99620.94;8274896;28;20133;-80
2021/12/05 03:38:44;;;;;;;12.05;8.07;;;5.30;58.30;;;3.63;64.04;99637.63;8286718;28;20129;-80
2021/12/05 03:43:13;;;;;;;13.02;8.52;;;5.30;58.40;;;3.60;63.58;99635.19;8269541;28;20045;-80
2021/12/05 03:47:36;;;;;;;15.90;9.27;;;5.30;58.30;;;3.60;63.55;99634.34;8283624;28;20121;-81
2021/12/05 03:52:14;;;;;;;14.55;8.02;;;5.40;58.40;;;3.61;63.79;99649.75;8277857;28;20039;-81
2021/12/05 03:56:37;;;;;;;13.98;8.52;;;5.40;58.30;;;3.60;63.70;99644.69;8290935;28;20461;-80
2021/12/05 04:01:03;;;;;;;12.70;8.38;;;5.40;58.30;;;3.53;63.77;99649.25;8272626;28;20128;-80
2021/12/05 04:05:25;;;;;;;;;;;5.40;58.30;;;3.65;63.52;99684.03;8283186;28;20148;-80
2021/12/05 04:09:49;;;;;;;11.50;6.97;;;5.40;58.40;;;3.61;63.79;99672.97;8269421;28;19917;-80
2021/12/05 04:14:14;;;;;;;13.50;7.93;;;5.40;58.20;;;3.66;63.94;99677.94;8270052;28;20121;-80
2021/12/05 04:18:37;;;;;;;14.75;9.05;;;5.40;58.30;;;3.68;63.69;99679.56;8294924;28;20132;-80
2021/12/05 04:23:00;;;;;;;14.25;8.80;;;5.40;58.30;;;3.69;63.72;99677.81;8266962;28;20180;-80
2021/12/05 04:27:22;;;;;;;13.95;8.90;;;5.40;58.30;;;3.71;63.81;99683.75;8296932;28;20563;-80
2021/12/05 04:31:44;;;;;;;14.38;9.23;;;5.40;58.30;;;3.73;63.74;99687.94;8280279;28;20065;-80
2021/12/05 04:36:07;;;;;;;15.95;9.43;;;5.40;58.30;;;3.74;63.86;99679.28;8286418;28;20483;-80
2021/12/05 04:40:29;;;;;;;14.05;9.13;;;5.50;58.30;;;3.71;63.76;99681.19;8292386;28;20487;-80
2021/12/05 04:44:51;;;;;;;12.65;8.10;;;5.50;58.30;;;3.77;63.80;99673.16;8289564;28;20133;-80
2021/12/05 04:49:14;;;;;;;14.90;9.95;;;5.50;58.20;;;3.74;63.62;99675.88;8290693;28;20057;-80
2021/12/05 04:53:36;;;;;;;15.20;8.93;;;5.50;58.30;;;3.60;63.72;99655.00;8270182;28;20125;-79
2021/12/05 04:58:02;;;;;;;15.27;8.85;;;5.50;58.20;;;3.71;63.66;99668.25;8256607;28;20122;-80
2021/12/05 05:02:26;;;;;;;16.83;9.35;;;5.50;58.20;;;3.77;63.67;99686.91;8267777;28;20137;-79
2021/12/05 05:06:48;;;;;;;19.45;10.25;;;5.50;58.30;;;3.80;63.94;99692.84;8262855;28;20046;-80
2021/12/05 05:11:14;;;;;;;14.98;9.70;;;5.50;58.20;;;3.73;63.85;99693.13;8287621;28;20045;-79
2021/12/05 05:15:36;;;;;;;11.75;7.75;;;5.50;58.30;;;3.77;63.80;99704.97;8289530;28;20123;-79
2021/12/05 05:20:03;;;;;;;14.77;9.23;;;5.50;58.30;;;3.82;64.01;99715.09;8311622;23;20063;-79
2021/12/05 05:24:51;;;;;;;13.68;8.68;;;5.50;58.30;;;3.78;63.79;99705.84;8297886;28;20132;-77
2021/12/05 05:43:31;;;;;;;16.83;9.32;;;5.50;58.20;;;3.83;63.69;99749.50;8286636;28;20134;-78
2021/12/05 05:48:14;;;;;;;15.45;9.13;;;5.60;58.20;;;3.76;63.91;99743.78;8317372;28;20582;-77
2021/12/05 05:52:35;;;;;;;17.33;10.05;;;5.60;58.20;;;3.75;63.70;99742.94;8311978;28;20042;-78
2021/12/05 05:57:07;;;;;;;16.10;9.88;;;5.60;58.20;;;3.73;63.69;99743.91;8313937;28;20048;-78
2021/12/05 06:01:56;;;;;;;14.55;8.90;;;5.50;58.10;;;3.73;63.66;99757.66;8308005;28;20051;-77
2021/12/05 06:06:16;;;;;;;15.33;8.93;;;5.50;58.20;;;3.80;63.93;99765.13;8315613;28;20128;-78
2021/12/05 06:10:38;;;;;;;14.65;9.07;;;5.60;58.30;;;3.76;63.88;99764.44;8279876;28;20282;-78
2021/12/05 06:15:00;;;;;;;15.40;9.50;;;5.50;58.20;;;3.74;63.80;99756.75;8283274;28;20128;-79
2021/12/05 06:19:22;;;;;;;19.00;9.55;;;5.50;58.30;;;3.79;63.64;99776.38;8297639;28;20125;-77
2021/12/05 06:23:45;;;;;;;16.35;9.98;;;5.50;58.30;;;3.75;63.74;99763.59;8301978;28;20140;-78
2021/12/05 06:28:11;;;;;;;17.55;10.65;;;5.50;58.20;;;3.71;63.57;99776.69;8295834;28;20125;-78
2021/12/05 06:37:44;;;;;;;15.73;9.40;;;5.50;58.20;;;3.61;63.84;99790.88;8294722;28;20125;-79
2021/12/05 06:46:46;;;;;;;15.45;8.95;;;5.50;58.10;;;3.60;63.67;99805.53;8310474;28;20566;-78
2021/12/05 06:51:14;;;;;;;13.48;9.18;;;5.40;58.10;;;3.58;63.69;99828.00;8298541;28;20518;-78
2021/12/05 06:55:37;;;;;;;14.43;9.30;;;5.40;58.20;;;3.66;64.01;99840.59;8317765;28;20053;-79
2021/12/05 06:59:59;;;;;;;17.67;9.50;;;5.40;58.30;;;3.65;63.82;99851.84;8314706;28;20192;-81
2021/12/05 07:09:05;;;;;;;15.38;9.82;;;5.40;58.30;;;3.65;64.00;99857.81;8305544;28;20120;-80
2021/12/05 07:41:46;;;;;;;17.88;9.38;;;5.40;58.30;;;3.60;63.49;99907.97;8283257;28;20045;-80
2021/12/05 07:46:08;;;;;;;17.73;10.13;;;5.30;58.30;;;3.57;63.86;99898.59;8282558;28;20503;-79
2021/12/05 07:50:40;;;;;;;15.30;9.80;;;5.40;58.40;;;3.67;64.03;99914.53;8286800;28;20053;-79
2021/12/05 07:55:25;;;;;;;13.48;8.77;;;5.30;58.30;;;3.58;64.24;99915.75;8278124;28;20133;-79
2021/12/05 08:18:37;;;;;;;17.70;10.02;;;5.40;58.50;;;3.61;63.99;99925.97;8282045;28;20120;-81
2021/12/05 08:23:04;;;;;;;16.25;9.77;;;5.40;58.50;;;3.73;64.12;99953.06;8263253;28;20472;-86
2021/12/05 08:27:26;;;;;;;16.75;9.77;;;5.40;58.30;;;3.69;63.97;99954.06;8269701;28;20121;-84
2021/12/05 08:36:54;;;;;;;17.67;9.55;;;5.50;58.30;;;3.68;63.86;99960.13;8268926;28;20132;-83
2021/12/05 09:24:05;;;;;;;18.13;9.35;;;5.50;58.40;;;3.69;64.26;99990.19;8306117;28;20041;-88
2021/12/05 10:10:29;;;;;;;18.45;10.05;;;5.60;58.50;;;3.86;64.29;100054.97;8292445;28;20064;-87
2021/12/05 10:15:36;;;;;;;27.48;13.18;;;5.70;58.40;;;3.82;64.18;100053.38;8290685;28;20152;-88
2021/12/05 10:39:10;;;;;;;22.30;10.85;;;5.70;58.60;;;3.92;64.35;100079.72;8274509;28;20045;-85
2021/12/05 10:43:33;;;;;;;21.98;10.13;;;5.70;58.60;;;3.96;64.20;100082.09;8285956;28;20045;-86
2021/12/05 10:47:58;;;;;;;20.35;10.10;;;5.70;58.40;;;3.91;64.33;100075.44;8309604;28;20072;-86
2021/12/05 10:52:23;;;;;;;18.08;9.32;;;5.80;58.40;;;3.99;64.32;100092.31;8283135;28;20054;-85
2021/12/05 10:56:56;;;;;;;17.67;9.73;;;5.80;58.40;;;4.04;64.12;100099.06;8290449;28;20045;-85
2021/12/05 11:01:33;;;;;;;20.38;10.50;;;5.80;58.50;;;3.89;64.42;100080.66;8280794;28;20051;-84
2021/12/05 11:05:55;;;;;;;21.75;11.68;;;5.80;58.40;;;3.96;63.96;100089.84;8290481;28;20060;-84
2021/12/05 11:10:17;;;;;;;28.90;13.23;;;5.80;58.30;;;3.97;64.25;100088.13;8262286;28;20046;-85
2021/12/05 11:14:48;;;;;;;21.17;11.55;;;5.80;58.30;;;3.93;64.23;100095.13;8290112;28;20045;-85
2021/12/05 11:19:24;;;;;;;25.48;12.93;;;5.80;58.30;;;3.85;64.22;100089.41;8288679;28;20048;-84
2021/12/05 11:23:45;;;;;;;23.48;11.80;;;5.80;58.30;;;3.94;64.33;100094.25;8302878;28;20053;-83
2021/12/05 11:28:08;;;;;;;19.33;10.88;;;5.80;58.40;;;3.94;64.25;100101.13;8280578;28;20052;-85
2021/12/05 11:33:04;;;;;;;24.10;12.20;;;5.80;58.40;;;4.01;64.38;100118.09;8300887;28;20053;-87
2021/12/05 11:37:26;;;;;;;21.30;11.45;;;5.80;58.30;;;4.02;64.38;100111.19;8303411;28;20048;-86
2021/12/05 11:41:49;;;;;;;22.38;11.65;;;5.80;58.30;;;3.96;64.17;100100.19;8297730;28;20145;-86
2021/12/05 11:46:25;;;;;;;22.17;11.65;;;5.80;58.40;;;4.04;64.37;100109.38;8285326;28;20056;-83
2021/12/05 11:50:48;;;;;;;27.02;14.18;;;5.80;58.50;;;3.94;63.68;100085.63;8288063;28;20057;-85
2021/12/05 11:55:26;;;;;;;21.70;12.13;;;5.80;58.50;;;3.96;64.43;100087.25;8277389;28;20056;-85
2021/12/05 12:00:09;;;;;;;22.42;12.55;;;5.80;58.60;;;3.96;64.29;100094.19;8270721;28;20059;-86
2021/12/05 12:04:50;;;;;;;23.63;13.00;;;5.80;58.60;;;4.08;64.31;100111.81;8269883;28;20180;-82
2021/12/05 12:09:12;;;;;;;28.95;14.48;;;5.80;58.60;;;4.07;64.18;100117.03;8287559;28;20061;-82
2021/12/05 12:13:37;;;;;;;29.50;14.20;;;5.80;58.50;;;3.96;64.30;100089.84;8282418;28;20045;-81
2021/12/05 12:18:17;;;;;;;23.17;11.93;;;5.80;58.60;;;4.09;63.73;100117.81;8281629;28;20045;-84
2021/12/05 12:22:40;;;;;;;24.60;12.23;;;5.80;58.50;;;3.99;63.94;100106.97;8290619;28;20052;-84
2021/12/05 12:27:03;;;;;;;24.80;12.57;;;5.80;58.40;;;4.05;64.18;100109.34;8272630;28;20066;-82
2021/12/05 12:31:34;;;;;;;23.80;12.00;;;5.80;58.40;;;4.02;64.23;100116.34;8293352;28;20051;-83
2021/12/05 12:35:56;;;;;;;26.00;13.18;;;5.80;58.50;;;3.98;64.41;100113.88;8282392;28;20037;-83
2021/12/05 12:40:58;;;;;;;24.13;13.10;;;5.80;58.40;;;3.96;64.12;100123.44;8242991;28;20524;-85
2021/12/05 12:45:21;;;;;;;24.13;12.05;;;5.70;58.50;;;4.01;64.33;100145.69;8280333;28;20048;-83
2021/12/05 12:49:43;;;;;;;21.45;12.27;;;5.70;58.50;;;4.04;64.00;100161.91;8297354;28;20045;-83
2021/12/05 12:54:26;;;;;;;21.65;12.40;;;5.70;58.50;;;3.92;64.36;100137.38;8278722;28;20049;-83
2021/12/05 12:58:58;;;;;;;23.33;11.43;;;5.80;58.60;;;4.06;64.60;100167.00;8279646;28;20343;-83
2021/12/05 13:04:04;;;;;;;20.90;11.65;;;5.80;58.60;;;4.03;64.25;100149.06;8284209;28;20045;-85
2021/12/05 13:13:14;;;;;;;22.52;12.48;;;5.80;58.60;;;4.09;64.15;100170.31;8292960;28;20037;-85
2021/12/05 13:17:53;;;;;;;22.85;12.75;;;5.80;58.50;;;4.07;64.18;100169.53;8314201;28;20053;-84
2021/12/05 13:22:14;;;;;;;21.80;12.35;;;5.80;58.40;;;4.08;64.43;100167.78;8294186;28;20055;-84
2021/12/05 13:26:39;;;;;;;23.13;13.07;;;5.80;58.40;;;3.97;64.15;100148.38;8302467;28;20067;-85
2021/12/05 13:31:26;;;;;;;30.63;14.82;;;5.80;58.40;;;4.06;64.19;100175.59;8259251;28;20042;-83
2021/12/05 13:35:49;;;;;;;23.48;13.48;;;5.80;58.40;;;3.96;64.23;100164.75;8282620;28;20046;-83
2021/12/05 13:40:25;;;;;;;25.38;13.43;;;5.80;58.30;;;3.95;64.29;100168.25;8278811;28;20047;-84
2021/12/05 13:44:59;;;;;;;21.92;12.23;;;5.80;58.40;;;4.07;64.40;100185.03;8282713;28;20052;-85
2021/12/05 13:49:38;;;;;;;24.02;13.38;;;5.80;58.60;;;3.93;64.38;100169.19;8294104;28;20054;-83
2021/12/05 13:54:01;;;;;;;26.75;13.38;;;5.70;58.60;;;4.06;64.13;100193.69;8271039;28;20054;-83
2021/12/05 13:58:32;;;;;;;23.27;12.55;;;5.90;58.60;;;4.14;64.40;100214.06;8291593;28;20044;-83
2021/12/05 14:02:54;;;;;;;26.63;13.55;;;5.90;58.60;;;4.13;64.27;100212.38;8298548;28;20421;-83
2021/12/05 14:07:18;;;;;;;24.13;13.43;;;5.90;58.60;;;4.06;64.37;100210.94;8247469;28;20042;-83
2021/12/05 14:12:08;;;;;;;24.80;13.57;;;5.90;58.50;;;4.11;64.35;100224.53;8267837;28;20049;-82
2021/12/05 14:16:40;;;;;;;21.40;12.48;;;5.90;58.60;;;4.12;64.44;100234.78;8301635;28;20041;-83
2021/12/05 14:21:19;;;;;;;22.73;12.35;;;5.90;58.60;;;4.08;64.56;100247.88;8254406;28;20049;-83
2021/12/05 14:25:41;;;;;;;25.13;12.55;;;5.90;58.60;;;4.06;64.45;100257.44;8285562;28;20489;-82
2021/12/05 14:30:19;;;;;;;27.67;14.32;;;5.80;58.50;;;4.16;64.18;100279.47;8261673;28;20063;-82
2021/12/05 14:34:42;;;;;;;27.65;13.93;;;5.90;58.60;;;4.19;64.23;100297.44;8294293;28;20514;-82
2021/12/05 14:39:15;;;;;;;25.67;14.52;;;5.90;58.60;;;4.10;64.12;100287.41;8275890;28;20055;-82
2021/12/05 14:43:36;;;;;;;27.80;14.35;;;5.90;58.60;;;4.15;64.20;100303.59;8295832;28;20395;-83
2021/12/05 14:48:03;;;;;;;24.58;13.73;;;5.90;58.50;;;4.18;64.48;100319.00;8266623;28;20038;-82
2021/12/05 14:52:37;;;;;;;22.40;12.75;;;5.90;58.50;;;4.20;64.61;100330.97;8294697;28;20049;-84
2021/12/05 14:57:03;;;;;;;26.98;13.52;;;6.00;58.60;;;3.96;64.35;100301.66;8276013;28;20052;-84
2021/12/05 15:01:29;;;;;;;25.75;14.05;;;5.90;58.60;;;4.17;64.24;100332.81;8280042;28;20060;-86
2021/12/05 15:05:54;;;;;;;;;;;5.90;58.60;;;4.19;64.35;100342.22;8282458;28;20569;-86
2021/12/05 15:10:20;;;;;;;20.08;10.93;;;6.00;58.60;;;4.15;64.24;100344.94;8269815;28;19921;-83
2021/12/05 15:14:46;;;;;;;23.90;12.95;;;6.20;58.60;;;4.12;64.29;100339.88;8274878;28;20058;-85
2021/12/05 15:19:14;;;;;;;;;;;5.90;58.50;;;4.18;64.17;100344.84;8365725;23;20505;-77
2021/12/05 15:23:40;;;;;;;24.10;11.73;;;5.90;58.70;;;4.06;64.16;100340.94;8289047;28;19917;-78
2021/12/05 15:28:02;;;;;;;;;;;5.80;58.40;;;4.09;64.07;100360.66;8294701;28;20050;-78
2021/12/05 15:32:28;;;;;;;19.58;11.18;;;5.90;58.60;;;4.03;64.17;100347.97;8234256;28;20323;-78
2021/12/05 15:36:52;;;;;;;34.92;18.45;;;5.80;58.40;;;3.99;64.41;100347.22;8277059;28;20483;-79
2021/12/05 15:41:16;;;;;;;27.25;14.65;;;5.80;58.60;;;4.04;64.46;100357.41;8275066;28;20531;-78
2021/12/05 15:45:40;;;;;;;27.23;14.73;;;5.90;58.60;;;4.02;64.32;100360.03;8295587;28;20502;-77
2021/12/05 15:50:15;;;;;;;29.95;16.20;;;5.70;58.60;;;4.04;64.24;100353.06;8289088;28;20057;-78
2021/12/05 15:54:39;;;;;;;34.30;16.73;;;5.80;58.70;;;4.01;64.30;100358.34;8261680;28;20042;-79
2021/12/05 15:59:07;;;;;;;39.13;19.27;;;5.70;58.70;;;3.99;64.37;100375.63;8276233;28;20037;-78
2021/12/05 16:03:42;;;;;;;37.28;17.95;;;5.70;58.70;;;4.00;64.30;100392.84;8273442;28;20529;-78
2021/12/05 16:08:10;;;;;;;33.83;17.80;;;5.70;58.50;;;3.95;64.15;100394.72;8285097;28;20042;-77
2021/12/05 16:12:39;;;;;;;26.88;15.57;;;5.70;58.60;;;3.90;64.22;100389.69;8288096;28;20410;-78
2021/12/05 16:17:00;;;;;;;35.40;15.90;;;5.70;58.60;;;3.93;64.11;100399.94;8261131;28;20866;-83
2021/12/05 16:21:31;;;;;;;31.65;15.93;;;5.70;58.60;;;3.87;64.34;100382.06;8283862;28;20076;-80
2021/12/05 16:26:02;;;;;;;27.55;14.45;;;5.60;58.60;;;3.90;64.52;100397.44;8294690;28;20041;-77
2021/12/05 16:30:27;;;;;;;33.53;17.00;;;5.60;58.70;;;3.92;64.46;100398.25;8278257;28;20067;-77
2021/12/05 16:34:51;;;;;;;30.38;15.20;;;5.70;58.80;;;3.90;64.26;100397.44;8262032;28;20042;-78
2021/12/05 16:39:43;;;;;;;34.45;17.15;;;5.70;58.80;;;3.92;64.23;100411.16;8269326;28;20049;-78
2021/12/05 16:44:13;;;;;;;34.25;16.77;;;5.50;58.80;;;3.86;64.34;100408.78;8274398;28;20063;-80
2021/12/05 16:48:37;;;;;;;29.20;14.43;;;5.60;58.60;;;3.91;64.17;100421.53;8267359;28;20045;-80
2021/12/05 16:52:59;;;;;;;35.00;17.38;;;5.50;58.70;;;3.89;64.47;100420.72;8300247;28;20053;-78
2021/12/05 16:57:43;;;;;;;28.83;14.52;;;5.70;58.80;;;3.87;64.32;100423.38;8268926;28;20052;-80
2021/12/05 17:02:12;;;;;;;31.02;15.55;;;5.60;58.80;;;3.86;64.20;100428.59;8291056;28;20046;-80
2021/12/05 17:06:52;;;;;;;31.60;15.88;;;5.60;58.70;;;3.87;64.22;100431.13;8265968;28;20045;-79
2021/12/05 17:11:18;;;;;;;31.00;14.40;;;5.60;58.80;;;3.89;64.41;100428.47;8270606;28;20046;-80
2021/12/05 17:15:48;;;;;;;34.85;14.55;;;5.60;58.80;;;3.93;64.69;100436.09;8279462;28;20041;-78
2021/12/05 17:20:27;;;;;;;28.88;13.65;;;5.60;58.90;;;3.90;64.37;100443.09;8289490;28;20044;-83
2021/12/05 17:24:49;;;;;;;30.40;15.73;;;5.60;58.80;;;3.89;64.60;100441.41;8259901;28;20419;-78
2021/12/05 17:29:21;;;;;;;27.27;13.98;;;5.60;58.90;;;3.85;64.26;100445.00;8274727;28;20048;-79
2021/12/05 17:33:52;;;;;;;33.17;16.55;;;5.60;58.80;;;3.92;64.26;100462.81;8264720;28;20061;-79
2021/12/05 17:38:14;;;;;;;32.38;16.23;;;5.60;58.80;;;3.94;64.06;100467.94;8297421;28;20409;-78
2021/12/05 17:42:36;;;;;;;29.33;14.35;;;5.60;58.80;;;3.86;64.64;100467.31;8314509;28;20059;-78
2021/12/05 17:47:05;;;;;;;31.02;15.75;;;5.50;58.70;;;3.92;64.36;100475.75;8272596;28;20045;-79
2021/12/05 17:51:34;;;;;;;26.83;13.27;;;5.60;58.80;;;3.91;64.44;100475.78;8285747;28;20592;-79
2021/12/05 17:56:02;;;;;;;30.10;14.98;;;5.60;58.80;;;3.94;64.44;100492.03;8303202;28;20045;-77
2021/12/05 18:04:57;;;;;;;28.98;14.90;;;5.50;58.80;;;3.89;64.29;100495.63;8290666;28;20061;-78
2021/12/05 18:09:19;;;;;;;30.17;14.77;;;5.60;58.80;;;3.88;64.16;100499.97;8240348;28;20053;-79
2021/12/05 18:13:44;;;;;;;35.40;17.75;;;5.60;58.70;;;3.80;64.16;100489.03;8251378;28;20421;-77
2021/12/05 18:18:06;;;;;;;33.25;17.35;;;5.60;58.70;;;3.84;64.80;100500.97;8269869;28;20050;-79
2021/12/05 18:22:28;;;;;;;30.77;14.95;;;5.60;58.80;;;3.55;64.56;100458.81;8232552;28;20410;-78
2021/12/05 18:26:51;;;;;;;27.80;15.90;;;5.60;58.80;;;3.84;64.43;100513.03;8242385;28;20048;-78
2021/12/05 18:31:17;;;;;;;28.90;15.20;;;5.60;58.80;;;3.92;64.42;100518.81;8292674;28;20053;-77
2021/12/05 18:35:39;;;;;;;29.75;15.05;;;5.50;58.80;;;3.80;64.51;100509.69;8271936;28;20286;-78
2021/12/05 18:40:03;;;;;;;28.20;14.43;;;5.60;58.90;;;3.78;64.42;100511.50;8284440;28;20048;-76
2021/12/05 18:44:28;;;;;;;27.35;14.82;;;5.60;59.20;;;3.89;64.79;100532.66;8286854;28;20064;-79
2021/12/05 18:48:50;;;;;;;;;;;5.60;58.80;;;3.95;64.58;100540.22;8286997;28;20058;-79
2021/12/05 18:53:12;;;;;;;27.45;14.57;;;5.60;58.90;;;3.92;64.36;100548.06;8271078;28;19931;-78
2021/12/05 18:57:35;;;;;;;26.55;14.48;;;5.70;59.10;;;3.95;64.64;100550.56;8286642;28;20052;-79
2021/12/05 19:06:43;;;;;;;33.95;15.73;;;5.70;58.80;;;3.96;64.94;100552.25;8267212;28;20048;-89
2021/12/05 19:15:46;;;;;;;27.40;15.35;;;5.60;58.60;;;4.01;64.42;100585.69;8241027;28;20054;-90
2021/12/05 19:20:18;;;;;;;30.40;15.95;;;5.80;58.60;;;3.95;64.69;100571.22;8239519;28;20046;-89
2021/12/05 19:24:42;;;;;;;26.73;14.93;;;5.80;58.60;;;3.92;64.50;100575.66;8235248;28;20503;-91
2021/12/05 19:29:04;;;;;;;29.13;16.45;;;5.80;58.60;;;4.00;64.62;100604.69;8219020;28;20046;-90
2021/12/05 19:33:29;;;;;;;31.40;17.20;;;5.70;58.70;;;3.96;64.59;100606.47;8235072;28;20576;-88
2021/12/05 19:37:50;;;;;;;30.75;15.82;;;5.70;58.70;;;3.95;64.60;100606.56;8234930;28;20050;-87
2021/12/05 19:42:20;;;;;;;29.92;15.90;;;5.70;58.70;;;3.96;64.66;100618.56;8247261;28;20053;-86
2021/12/05 19:46:43;;;;;;;25.63;14.77;;;5.70;58.70;;;3.89;64.51;100601.53;8217333;28;20430;-87
2021/12/05 19:51:07;;;;;;;29.02;15.13;;;5.70;58.80;;;3.96;64.65;100614.25;8242643;28;20038;-87
2021/12/05 19:55:29;;;;;;;25.15;15.02;;;5.70;58.70;;;3.97;64.60;100626.28;8227888;28;20047;-90
2021/12/05 19:59:51;;;;;;;26.02;14.68;;;5.70;58.80;;;3.92;64.39;100611.81;8220202;28;20041;-90
2021/12/05 20:04:15;;;;;;;26.60;15.43;;;5.70;58.80;;;4.01;64.39;100631.34;8243431;28;20046;-89
2021/12/05 20:08:37;;;;;;;28.20;15.82;;;5.70;58.80;;;3.89;64.83;100617.91;8244503;28;20042;-89
2021/12/05 20:13:02;;;;;;;25.50;15.00;;;5.60;59.00;;;3.99;64.48;100634.81;8243862;28;20042;-88
2021/12/05 20:17:24;;;;;;;29.27;15.93;;;5.80;58.80;;;3.97;64.82;100648.69;8238946;28;20128;-90
2021/12/05 20:21:48;;;;;;;25.92;14.38;;;5.70;58.70;;;4.01;64.66;100649.44;8250479;28;20041;-90
2021/12/05 20:26:14;;;;;;;28.10;15.77;;;5.70;58.70;;;3.99;64.43;100650.31;8243568;28;20057;-89
2021/12/05 20:30:37;;;;;;;23.42;14.25;;;5.70;58.70;;;3.97;64.43;100653.84;8233070;28;20038;-89
2021/12/05 20:35:02;;;;;;;30.38;16.58;;;5.90;58.80;;;3.99;64.49;100654.63;8248399;28;20053;-89
2021/12/05 20:39:26;;;;;;;28.80;15.32;;;5.60;58.70;;;3.95;64.58;100653.06;8227434;28;20038;-87
2021/12/05 20:43:49;;;;;;;37.42;20.58;;;5.70;58.70;;;3.98;64.71;100655.53;8245907;28;20513;-87
2021/12/05 20:48:12;;;;;;;38.90;21.88;;;5.80;58.80;;;3.93;64.28;100654.81;8237939;28;20410;-89
2021/12/05 20:52:35;;;;;;;30.38;16.35;;;5.60;58.70;;;3.77;64.38;100629.44;8239004;28;20402;-89
2021/12/05 20:56:57;;;;;;;29.35;16.20;;;5.60;58.70;;;3.95;64.72;100666.81;8237997;28;20411;-89
2021/12/05 21:01:20;;;;;;;27.58;15.35;;;5.60;58.70;;;3.91;64.69;100667.78;8235957;28;20134;-90
2021/12/05 21:05:49;;;;;;;24.30;13.82;;;5.60;58.70;;;3.90;64.45;100668.66;8242000;28;20033;-89
2021/12/05 21:10:11;;;;;;;27.38;15.25;;;5.60;58.80;;;3.87;64.41;100663.59;8229539;28;20034;-89
2021/12/05 21:14:33;;;;;;;23.38;14.80;;;5.70;58.80;;;3.91;64.45;100672.94;8240018;28;20042;-90
2021/12/05 21:18:56;;;;;;;24.10;13.43;;;5.70;58.80;;;3.97;64.62;100683.13;8248497;28;20097;-90
2021/12/05 21:23:21;;;;;;;25.40;13.98;;;5.50;58.70;;;3.94;64.79;100688.38;8246283;28;20419;-90
2021/12/05 21:27:45;;;;;;;23.63;13.18;;;5.70;58.80;;;4.00;64.44;100695.09;8218513;28;20101;-89
2021/12/05 21:32:07;;;;;;;22.38;13.40;;;5.70;58.80;;;3.97;64.55;100690.88;8240550;28;20126;-88
2021/12/05 21:36:32;;;;;;;22.85;13.02;;;5.70;58.80;;;3.96;64.56;100696.06;8246672;28;20125;-90
2021/12/05 21:41:05;;;;;;;23.58;13.00;;;5.80;58.80;;;3.96;64.60;100701.22;8242846;28;20478;-89
2021/12/05 21:45:28;;;;;;;21.75;14.00;;;5.70;58.80;;;4.01;64.87;100701.09;8238541;28;20507;-92
2021/12/05 21:49:49;;;;;;;25.02;13.82;;;5.70;58.70;;;3.94;64.52;100700.41;8245742;28;20046;-92
2021/12/05 21:54:11;;;;;;;25.83;13.30;;;5.70;58.70;;;3.97;64.72;100708.13;8236753;28;20052;-92
2021/12/05 21:58:33;;;;;;;23.17;13.35;;;5.70;58.70;;;3.97;64.62;100702.94;8246209;28;20367;-92
2021/12/05 22:02:55;;;;;;;29.38;15.73;;;5.70;58.70;;;3.92;64.68;100707.38;8245821;28;20251;-92
2021/12/05 22:07:18;;;;;;;29.98;17.73;;;5.70;58.70;;;3.88;64.38;100708.34;8252777;28;20498;-91
2021/12/05 22:11:40;;;;;;;27.95;15.63;;;5.70;58.70;;;3.97;64.39;100728.78;8227737;28;20130;-92
2021/12/05 22:16:03;;;;;;;25.83;14.85;;;5.70;58.80;;;3.92;64.52;100715.97;8236581;28;20052;-90
2021/12/05 22:20:28;;;;;;;29.67;16.95;;;5.70;58.80;;;3.89;64.53;100723.81;8239786;28;20038;-91
2021/12/05 22:24:50;;;;;;;25.17;14.23;;;5.70;58.90;;;3.94;64.74;100739.16;8232737;28;20125;-91
2021/12/05 22:29:16;;;;;;;24.95;14.55;;;5.60;58.80;;;3.87;64.47;100733.34;8254863;28;20137;-92
2021/12/05 22:33:39;;;;;;;24.65;13.15;;;5.60;58.80;;;3.91;64.53;100739.25;8233874;28;20042;-91
2021/12/05 22:38:04;;;;;;;26.08;13.27;;;5.50;58.80;;;3.87;64.55;100735.09;8252696;28;20129;-93
2021/12/05 22:42:26;;;;;;;28.90;14.77;;;5.60;58.80;;;3.77;64.52;100724.97;8275086;28;20109;-91
2021/12/05 22:46:48;;;;;;;22.98;12.73;;;5.60;59.20;;;3.79;64.45;100729.28;8256005;28;20132;-91
2021/12/05 22:51:12;;;;;;;22.40;12.70;;;5.60;58.80;;;3.81;64.12;100738.69;8270237;28;20462;-91
2021/12/05 22:55:34;;;;;;;21.02;11.85;;;5.50;58.90;;;3.82;64.57;100742.94;8266300;28;20041;-90
2021/12/05 22:59:56;;;;;;;28.60;15.13;;;5.40;58.90;;;3.77;64.73;100735.31;8250373;28;20471;-90
2021/12/05 23:04:20;;;;;;;24.58;13.70;;;5.60;59.00;;;3.86;64.79;100751.44;8257922;28;20122;-90
2021/12/05 23:08:42;;;;;;;21.95;12.25;;;5.50;59.00;;;3.83;64.82;100739.47;8276193;28;20153;-90
2021/12/05 23:13:04;;;;;;;25.65;11.18;;;5.60;59.00;;;3.85;64.50;100748.03;8269593;28;20287;-91
2021/12/05 23:17:25;;;;;;;21.83;11.95;;;5.50;58.90;;;3.90;64.46;100750.50;8254217;28;20475;-91
2021/12/05 23:21:58;;;;;;;26.23;13.43;;;5.60;59.00;;;3.89;64.44;100759.09;8249099;28;20125;-91
2021/12/05 23:26:27;;;;;;;24.20;13.32;;;5.50;59.00;;;3.84;64.54;100748.94;8246894;28;20124;-91
2021/12/05 23:30:50;;;;;;;27.42;14.38;;;5.60;59.00;;;3.79;64.74;100761.09;8244839;28;20498;-91
2021/12/05 23:35:12;;;;;;;24.38;12.95;;;5.60;59.00;;;3.77;64.72;100758.56;8272782;28;20132;-91